sensor_id;sensor_type;location;lat;lon;timestamp;temperature;humidity
19646;DHT22;9971;52.446;13.452;2022-12-07T00:02:06;6.00;99.90
19646;DHT22;9971;52.446;13.452;2022-12-07T00:07:08;5.90;99.90
19646;DHT22;9971;52.446;13.452;2022-12-07T00:12:10;5.90;99.90
19646;DHT22;9971;52.446;13.452;2022-12-07T00:17:13;5.80;99.90
19646;DHT22;9971;52.446;13.452;2022-12-07T00:22:15;5.80;99.90
19646;DHT22;9971;52.446;13.452;2022-12-07T00:27:18;5.80;99.90
19646;DHT22;9971;52.446;13.452;2022-12-07T00:32:21;5.70;99.90
19646;DHT22;9971;52.446;13.452;2022-12-07T00:37:23;5.70;99.90
19646;DHT22;9971;52.446;13.452;2022-12-07T00:42:26;5.70;99.90
19646;DHT22;9971;52.446;13.452;2022-12-07T00:47:28;5.70;99.90
19646;DHT22;9971;52.446;13.452;2022-12-07T00:52:31;5.60;99.90
19646;DHT22;9971;52.446;13.452;2022-12-07T00:57:33;5.50;99.90
19646;DHT22;9971;52.446;13.452;2022-12-07T01:02:35;5.40;99.90
19646;DHT22;9971;52.446;13.452;2022-12-07T01:07:38;5.40;99.90
19646;DHT22;9971;52.446;13.452;2022-12-07T01:12:40;5.30;99.90
19646;DHT22;9971;52.446;13.452;2022-12-07T01:17:42;5.30;99.90
19646;DHT22;9971;52.446;13.452;2022-12-07T01:22:45;5.30;99.90
19646;DHT22;9971;52.446;13.452;2022-12-07T01:27:47;5.30;99.90
19646;DHT22;9971;52.446;13.452;2022-12-07T01:32:50;5.20;99.90
19646;DHT22;9971;52.446;13.452;2022-12-07T01:37:52;5.30;99.90
19646;DHT22;9971;52.446;13.452;2022-12-07T01:42:55;5.30;99.90
19646;DHT22;9971;52.446;13.452;2022-12-07T01:47:57;5.30;99.90
19646;DHT22;9971;52.446;13.452;2022-12-07T01:52:59;5.30;99.90
19646;DHT22;9971;52.446;13.452;2022-12-07T01:58:01;5.30;99.90
19646;DHT22;9971;52.446;13.452;2022-12-07T02:03:05;5.30;99.90
19646;DHT22;9971;52.446;13.452;2022-12-07T02:08:06;5.30;99.90
19646;DHT22;9971;52.446;13.452;2022-12-07T02:13:11;5.20;99.90
19646;DHT22;9971;52.446;13.452;2022-12-07T02:18:16;5.20;99.90
19646;DHT22;9971;52.446;13.452;2022-12-07T02:23:33;5.20;99.90
19646;DHT22;9971;52.446;13.452;2022-12-07T02:28:35;5.10;99.90
19646;DHT22;9971;52.446;13.452;2022-12-07T02:33:41;5.10;99.90
19646;DHT22;9971;52.446;13.452;2022-12-07T02:38:40;5.10;99.90
19646;DHT22;9971;52.446;13.452;2022-12-07T02:43:53;5.00;99.90
19646;DHT22;9971;52.446;13.452;2022-12-07T02:48:54;4.90;99.90
19646;DHT22;9971;52.446;13.452;2022-12-07T02:53:56;4.80;99.90
19646;DHT22;9971;52.446;13.452;2022-12-07T02:59:19;4.80;99.90
19646;DHT22;9971;52.446;13.452;2022-12-07T03:04:28;4.80;99.90
19646;DHT22;9971;52.446;13.452;2022-12-07T03:09:32;4.70;99.90
19646;DHT22;9971;52.446;13.452;2022-12-07T03:14:32;4.70;99.90
19646;DHT22;9971;52.446;13.452;2022-12-07T03:19:33;4.70;99.90
19646;DHT22;9971;52.446;13.452;2022-12-07T03:24:38;4.70;99.90
19646;DHT22;9971;52.446;13.452;2022-12-07T03:29:40;4.70;99.90
19646;DHT22;9971;52.446;13.452;2022-12-07T03:34:46;4.80;99.90
19646;DHT22;9971;52.446;13.452;2022-12-07T03:39:54;4.80;99.90
19646;DHT22;9971;52.446;13.452;2022-12-07T03:44:51;4.70;99.90
19646;DHT22;9971;52.446;13.452;2022-12-07T03:49:56;4.80;99.90
19646;DHT22;9971;52.446;13.452;2022-12-07T04:00:06;4.80;99.90
19646;DHT22;9971;52.446;13.452;2022-12-07T04:05:08;4.80;99.90
19646;DHT22;9971;52.446;13.452;2022-12-07T04:10:10;4.80;99.90
19646;DHT22;9971;52.446;13.452;2022-12-07T04:15:12;4.80;99.90
19646;DHT22;9971;52.446;13.452;2022-12-07T04:20:14;4.80;99.90
19646;DHT22;9971;52.446;13.452;2022-12-07T04:25:16;4.80;99.90
19646;DHT22;9971;52.446;13.452;2022-12-07T04:30:19;4.70;99.90
19646;DHT22;9971;52.446;13.452;2022-12-07T04:35:21;4.70;99.90
19646;DHT22;9971;52.446;13.452;2022-12-07T04:40:24;4.60;99.90
19646;DHT22;9971;52.446;13.452;2022-12-07T04:45:26;4.60;99.90
19646;DHT22;9971;52.446;13.452;2022-12-07T04:50:29;4.60;99.90
19646;DHT22;9971;52.446;13.452;2022-12-07T04:55:31;4.60;99.90
19646;DHT22;9971;52.446;13.452;2022-12-07T05:00:34;4.60;99.90
19646;DHT22;9971;52.446;13.452;2022-12-07T05:05:39;4.70;99.90
19646;DHT22;9971;52.446;13.452;2022-12-07T05:10:39;4.70;99.90
19646;DHT22;9971;52.446;13.452;2022-12-07T05:15:42;4.70;99.90
19646;DHT22;9971;52.446;13.452;2022-12-07T05:20:45;4.80;99.90
19646;DHT22;9971;52.446;13.452;2022-12-07T05:25:48;4.90;99.90
19646;DHT22;9971;52.446;13.452;2022-12-07T05:30:50;5.00;99.90
19646;DHT22;9971;52.446;13.452;2022-12-07T05:35:52;5.10;99.90
19646;DHT22;9971;52.446;13.452;2022-12-07T05:40:55;5.10;99.90
19646;DHT22;9971;52.446;13.452;2022-12-07T05:45:57;5.20;99.90
19646;DHT22;9971;52.446;13.452;2022-12-07T05:51:00;5.30;99.90
19646;DHT22;9971;52.446;13.452;2022-12-07T05:56:02;5.30;99.90
19646;DHT22;9971;52.446;13.452;2022-12-07T06:01:05;5.30;99.90
19646;DHT22;9971;52.446;13.452;2022-12-07T06:06:07;5.40;99.90
19646;DHT22;9971;52.446;13.452;2022-12-07T06:11:10;5.40;99.90
19646;DHT22;9971;52.446;13.452;2022-12-07T06:16:28;5.50;99.90
19646;DHT22;9971;52.446;13.452;2022-12-07T06:21:30;5.50;99.90
19646;DHT22;9971;52.446;13.452;2022-12-07T06:26:32;5.50;99.90
19646;DHT22;9971;52.446;13.452;2022-12-07T06:31:35;5.50;99.90
19646;DHT22;9971;52.446;13.452;2022-12-07T06:36:37;5.60;99.90
19646;DHT22;9971;52.446;13.452;2022-12-07T06:41:39;5.60;99.90
19646;DHT22;9971;52.446;13.452;2022-12-07T06:46:41;5.60;99.90
19646;DHT22;9971;52.446;13.452;2022-12-07T06:51:43;5.70;99.90
19646;DHT22;9971;52.446;13.452;2022-12-07T06:56:46;5.80;99.90
19646;DHT22;9971;52.446;13.452;2022-12-07T07:01:49;5.90;99.90
19646;DHT22;9971;52.446;13.452;2022-12-07T07:06:51;5.90;99.90
19646;DHT22;9971;52.446;13.452;2022-12-07T07:11:54;6.00;99.90
19646;DHT22;9971;52.446;13.452;2022-12-07T07:16:56;6.10;99.90
19646;DHT22;9971;52.446;13.452;2022-12-07T07:21:59;6.20;99.90
19646;DHT22;9971;52.446;13.452;2022-12-07T07:27:01;6.20;99.90
19646;DHT22;9971;52.446;13.452;2022-12-07T07:32:04;6.30;99.90
19646;DHT22;9971;52.446;13.452;2022-12-07T07:37:06;6.40;99.90
19646;DHT22;9971;52.446;13.452;2022-12-07T07:42:08;6.50;99.90
19646;DHT22;9971;52.446;13.452;2022-12-07T07:47:11;6.50;99.90
19646;DHT22;9971;52.446;13.452;2022-12-07T07:52:13;6.60;99.90
19646;DHT22;9971;52.446;13.452;2022-12-07T07:57:16;6.60;99.90
19646;DHT22;9971;52.446;13.452;2022-12-07T08:02:18;6.60;99.90
19646;DHT22;9971;52.446;13.452;2022-12-07T08:07:20;6.60;99.90
19646;DHT22;9971;52.446;13.452;2022-12-07T08:12:22;6.60;99.90
19646;DHT22;9971;52.446;13.452;2022-12-07T08:17:25;6.70;99.90
19646;DHT22;9971;52.446;13.452;2022-12-07T08:22:27;6.70;99.90
19646;DHT22;9971;52.446;13.452;2022-12-07T08:27:30;6.80;99.90
19646;DHT22;9971;52.446;13.452;2022-12-07T08:32:32;6.80;99.90
19646;DHT22;9971;52.446;13.452;2022-12-07T08:37:35;6.80;99.90
19646;DHT22;9971;52.446;13.452;2022-12-07T08:42:37;6.80;99.90
19646;DHT22;9971;52.446;13.452;2022-12-07T08:47:43;6.80;99.90
19646;DHT22;9971;52.446;13.452;2022-12-07T08:52:44;6.80;99.90
19646;DHT22;9971;52.446;13.452;2022-12-07T08:57:46;6.90;99.90
19646;DHT22;9971;52.446;13.452;2022-12-07T09:02:48;6.90;99.90
19646;DHT22;9971;52.446;13.452;2022-12-07T09:07:51;6.90;99.90
19646;DHT22;9971;52.446;13.452;2022-12-07T09:12:52;6.90;99.90
19646;DHT22;9971;52.446;13.452;2022-12-07T09:17:55;7.00;99.90
19646;DHT22;9971;52.446;13.452;2022-12-07T09:22:57;6.90;99.90
19646;DHT22;9971;52.446;13.452;2022-12-07T09:28:00;6.90;99.90
19646;DHT22;9971;52.446;13.452;2022-12-07T09:33:02;6.90;99.90
19646;DHT22;9971;52.446;13.452;2022-12-07T09:38:05;6.90;99.90
19646;DHT22;9971;52.446;13.452;2022-12-07T09:43:11;6.90;99.90
19646;DHT22;9971;52.446;13.452;2022-12-07T09:48:17;6.90;99.90
19646;DHT22;9971;52.446;13.452;2022-12-07T09:53:26;6.80;99.90
19646;DHT22;9971;52.446;13.452;2022-12-07T09:58:28;6.90;99.90
19646;DHT22;9971;52.446;13.452;2022-12-07T10:03:29;6.80;99.90
19646;DHT22;9971;52.446;13.452;2022-12-07T10:08:32;6.80;99.90
19646;DHT22;9971;52.446;13.452;2022-12-07T10:13:47;6.80;99.90
19646;DHT22;9971;52.446;13.452;2022-12-07T10:18:48;6.80;99.90
19646;DHT22;9971;52.446;13.452;2022-12-07T10:24:01;6.80;99.90
19646;DHT22;9971;52.446;13.452;2022-12-07T10:29:36;6.70;99.90
19646;DHT22;9971;52.446;13.452;2022-12-07T10:34:25;6.80;99.90
19646;DHT22;9971;52.446;13.452;2022-12-07T10:39:26;6.80;99.90
19646;DHT22;9971;52.446;13.452;2022-12-07T10:44:30;6.80;99.90
19646;DHT22;9971;52.446;13.452;2022-12-07T10:49:49;6.80;99.90
19646;DHT22;9971;52.446;13.452;2022-12-07T10:55:16;6.80;99.90
19646;DHT22;9971;52.446;13.452;2022-12-07T11:00:22;6.80;99.90
19646;DHT22;9971;52.446;13.452;2022-12-07T11:05:35;6.90;99.90
19646;DHT22;9971;52.446;13.452;2022-12-07T11:10:36;6.90;99.90
19646;DHT22;9971;52.446;13.452;2022-12-07T11:15:51;7.00;99.90
19646;DHT22;9971;52.446;13.452;2022-12-07T11:26:04;7.10;99.90
19646;DHT22;9971;52.446;13.452;2022-12-07T11:31:23;7.10;99.90
19646;DHT22;9971;52.446;13.452;2022-12-07T11:36:32;7.20;99.90
19646;DHT22;9971;52.446;13.452;2022-12-07T11:41:34;7.20;99.90
19646;DHT22;9971;52.446;13.452;2022-12-07T11:46:44;7.20;99.90
19646;DHT22;9971;52.446;13.452;2022-12-07T11:51:42;7.20;99.90
19646;DHT22;9971;52.446;13.452;2022-12-07T11:56:45;7.30;99.90
19646;DHT22;9971;52.446;13.452;2022-12-07T12:01:52;7.20;99.90
19646;DHT22;9971;52.446;13.452;2022-12-07T12:06:49;7.30;99.90
19646;DHT22;9971;52.446;13.452;2022-12-07T12:17:29;7.30;99.90
19646;DHT22;9971;52.446;13.452;2022-12-07T12:22:37;7.40;99.90
19646;DHT22;9971;52.446;13.452;2022-12-07T12:27:37;7.40;99.90
19646;DHT22;9971;52.446;13.452;2022-12-07T12:32:40;7.40;99.90
19646;DHT22;9971;52.446;13.452;2022-12-07T12:37:42;7.50;99.90
19646;DHT22;9971;52.446;13.452;2022-12-07T12:42:48;7.50;99.90
19646;DHT22;9971;52.446;13.452;2022-12-07T12:47:58;7.50;99.90
19646;DHT22;9971;52.446;13.452;2022-12-07T12:53:04;7.50;99.90
19646;DHT22;9971;52.446;13.452;2022-12-07T12:58:29;7.50;99.90
19646;DHT22;9971;52.446;13.452;2022-12-07T13:03:30;7.50;99.90
19646;DHT22;9971;52.446;13.452;2022-12-07T13:08:32;7.60;99.90
19646;DHT22;9971;52.446;13.452;2022-12-07T13:13:35;7.50;99.90
19646;DHT22;9971;52.446;13.452;2022-12-07T13:18:36;7.60;99.90
19646;DHT22;9971;52.446;13.452;2022-12-07T13:23:55;7.60;99.90
19646;DHT22;9971;52.446;13.452;2022-12-07T13:29:17;7.60;99.90
19646;DHT22;9971;52.446;13.452;2022-12-07T13:39:32;7.70;99.90
19646;DHT22;9971;52.446;13.452;2022-12-07T13:44:38;7.70;99.90
19646;DHT22;9971;52.446;13.452;2022-12-07T13:49:38;7.70;99.90
19646;DHT22;9971;52.446;13.452;2022-12-07T13:54:54;7.70;99.90
19646;DHT22;9971;52.446;13.452;2022-12-07T13:59:50;7.60;99.90
19646;DHT22;9971;52.446;13.452;2022-12-07T14:05:05;7.60;99.90
19646;DHT22;9971;52.446;13.452;2022-12-07T14:09:55;7.60;99.90
19646;DHT22;9971;52.446;13.452;2022-12-07T14:14:59;7.60;99.90
19646;DHT22;9971;52.446;13.452;2022-12-07T14:20:27;7.60;99.90
19646;DHT22;9971;52.446;13.452;2022-12-07T14:25:16;7.60;99.90
19646;DHT22;9971;52.446;13.452;2022-12-07T14:30:17;7.60;99.90
19646;DHT22;9971;52.446;13.452;2022-12-07T14:35:19;7.50;99.90
19646;DHT22;9971;52.446;13.452;2022-12-07T14:40:25;7.50;99.90
19646;DHT22;9971;52.446;13.452;2022-12-07T14:45:26;7.50;99.90
19646;DHT22;9971;52.446;13.452;2022-12-07T14:50:28;7.50;99.90
19646;DHT22;9971;52.446;13.452;2022-12-07T14:55:30;7.40;99.90
19646;DHT22;9971;52.446;13.452;2022-12-07T15:00:32;7.40;99.90
19646;DHT22;9971;52.446;13.452;2022-12-07T15:05:34;7.30;99.90
19646;DHT22;9971;52.446;13.452;2022-12-07T15:10:37;7.30;99.90
19646;DHT22;9971;52.446;13.452;2022-12-07T15:15:39;7.20;99.90
19646;DHT22;9971;52.446;13.452;2022-12-07T15:20:41;7.10;99.90
19646;DHT22;9971;52.446;13.452;2022-12-07T15:25:44;7.10;99.90
19646;DHT22;9971;52.446;13.452;2022-12-07T15:30:46;7.00;99.90
19646;DHT22;9971;52.446;13.452;2022-12-07T15:35:48;7.00;99.90
19646;DHT22;9971;52.446;13.452;2022-12-07T15:40:51;6.80;99.90
19646;DHT22;9971;52.446;13.452;2022-12-07T15:45:54;6.80;99.90
19646;DHT22;9971;52.446;13.452;2022-12-07T15:51:03;6.80;99.90
19646;DHT22;9971;52.446;13.452;2022-12-07T15:56:06;6.90;99.90
19646;DHT22;9971;52.446;13.452;2022-12-07T16:01:10;6.90;99.90
19646;DHT22;9971;52.446;13.452;2022-12-07T16:06:11;6.90;99.90
19646;DHT22;9971;52.446;13.452;2022-12-07T16:11:13;6.90;99.90
19646;DHT22;9971;52.446;13.452;2022-12-07T16:16:16;6.90;99.90
19646;DHT22;9971;52.446;13.452;2022-12-07T16:21:17;6.80;99.90
19646;DHT22;9971;52.446;13.452;2022-12-07T16:26:20;6.80;99.90
19646;DHT22;9971;52.446;13.452;2022-12-07T16:31:23;6.70;99.90
19646;DHT22;9971;52.446;13.452;2022-12-07T16:36:24;6.60;99.90
19646;DHT22;9971;52.446;13.452;2022-12-07T16:41:26;6.60;99.90
19646;DHT22;9971;52.446;13.452;2022-12-07T16:46:28;6.50;99.90
19646;DHT22;9971;52.446;13.452;2022-12-07T16:51:31;6.50;99.90
19646;DHT22;9971;52.446;13.452;2022-12-07T16:56:33;6.50;99.90
19646;DHT22;9971;52.446;13.452;2022-12-07T17:01:35;6.40;99.90
19646;DHT22;9971;52.446;13.452;2022-12-07T17:06:48;6.40;99.90
19646;DHT22;9971;52.446;13.452;2022-12-07T17:11:51;6.40;99.90
19646;DHT22;9971;52.446;13.452;2022-12-07T17:16:54;6.40;99.90
19646;DHT22;9971;52.446;13.452;2022-12-07T17:21:56;6.60;99.90
19646;DHT22;9971;52.446;13.452;2022-12-07T17:26:59;7.30;99.90
19646;DHT22;9971;52.446;13.452;2022-12-07T17:32:01;8.00;99.90
19646;DHT22;9971;52.446;13.452;2022-12-07T17:37:05;8.70;99.90
19646;DHT22;9971;52.446;13.452;2022-12-07T17:42:07;9.30;99.90
19646;DHT22;9971;52.446;13.452;2022-12-07T17:47:14;9.90;99.90
19646;DHT22;9971;52.446;13.452;2022-12-07T17:52:17;10.30;99.90
19646;DHT22;9971;52.446;13.452;2022-12-07T17:57:25;10.70;99.90
19646;DHT22;9971;52.446;13.452;2022-12-07T18:02:28;11.10;99.90
19646;DHT22;9971;52.446;13.452;2022-12-07T18:07:30;11.40;99.90
19646;DHT22;9971;52.446;13.452;2022-12-07T18:12:33;11.70;99.90
19646;DHT22;9971;52.446;13.452;2022-12-07T18:17:35;11.90;99.90
19646;DHT22;9971;52.446;13.452;2022-12-07T18:22:38;12.20;99.90
19646;DHT22;9971;52.446;13.452;2022-12-07T18:27:40;12.40;99.90
19646;DHT22;9971;52.446;13.452;2022-12-07T18:32:43;12.60;99.90
19646;DHT22;9971;52.446;13.452;2022-12-07T18:37:46;12.80;99.90
19646;DHT22;9971;52.446;13.452;2022-12-07T18:42:48;13.00;99.90
19646;DHT22;9971;52.446;13.452;2022-12-07T18:47:51;13.20;99.90
19646;DHT22;9971;52.446;13.452;2022-12-07T18:52:55;13.40;99.90
19646;DHT22;9971;52.446;13.452;2022-12-07T18:57:55;13.60;99.90
19646;DHT22;9971;52.446;13.452;2022-12-07T19:02:57;13.70;99.90
19646;DHT22;9971;52.446;13.452;2022-12-07T19:08:00;13.80;99.90
19646;DHT22;9971;52.446;13.452;2022-12-07T19:13:02;14.00;99.90
19646;DHT22;9971;52.446;13.452;2022-12-07T19:18:04;14.10;99.90
19646;DHT22;9971;52.446;13.452;2022-12-07T19:23:07;14.20;99.90
19646;DHT22;9971;52.446;13.452;2022-12-07T19:28:09;14.30;99.90
19646;DHT22;9971;52.446;13.452;2022-12-07T19:33:12;14.40;99.90
19646;DHT22;9971;52.446;13.452;2022-12-07T19:38:14;14.50;99.90
19646;DHT22;9971;52.446;13.452;2022-12-07T19:43:17;14.60;99.90
19646;DHT22;9971;52.446;13.452;2022-12-07T19:48:20;14.70;99.90
19646;DHT22;9971;52.446;13.452;2022-12-07T19:53:22;14.80;99.90
19646;DHT22;9971;52.446;13.452;2022-12-07T19:58:25;14.80;99.90
19646;DHT22;9971;52.446;13.452;2022-12-07T20:03:27;14.90;99.90
19646;DHT22;9971;52.446;13.452;2022-12-07T20:08:30;15.00;99.90
19646;DHT22;9971;52.446;13.452;2022-12-07T20:13:32;15.10;99.90
19646;DHT22;9971;52.446;13.452;2022-12-07T20:18:35;15.20;99.90
19646;DHT22;9971;52.446;13.452;2022-12-07T20:23:37;15.20;99.90
19646;DHT22;9971;52.446;13.452;2022-12-07T20:28:40;15.30;99.90
19646;DHT22;9971;52.446;13.452;2022-12-07T20:33:42;15.40;99.90
19646;DHT22;9971;52.446;13.452;2022-12-07T20:38:44;15.50;99.90
19646;DHT22;9971;52.446;13.452;2022-12-07T20:43:46;15.60;99.90
19646;DHT22;9971;52.446;13.452;2022-12-07T20:48:48;15.70;99.90
19646;DHT22;9971;52.446;13.452;2022-12-07T20:53:50;15.70;99.90
19646;DHT22;9971;52.446;13.452;2022-12-07T20:58:53;15.80;99.90
19646;DHT22;9971;52.446;13.452;2022-12-07T21:03:56;15.80;99.90
19646;DHT22;9971;52.446;13.452;2022-12-07T21:08:58;15.90;99.90
19646;DHT22;9971;52.446;13.452;2022-12-07T21:14:00;15.90;99.90
19646;DHT22;9971;52.446;13.452;2022-12-07T21:19:03;16.00;99.90
19646;DHT22;9971;52.446;13.452;2022-12-07T21:24:05;16.00;99.90
19646;DHT22;9971;52.446;13.452;2022-12-07T21:29:08;16.10;99.90
19646;DHT22;9971;52.446;13.452;2022-12-07T21:34:11;16.10;99.90
19646;DHT22;9971;52.446;13.452;2022-12-07T21:39:13;16.10;99.90
19646;DHT22;9971;52.446;13.452;2022-12-07T21:44:16;16.20;99.90
19646;DHT22;9971;52.446;13.452;2022-12-07T21:49:19;16.20;99.90
19646;DHT22;9971;52.446;13.452;2022-12-07T21:54:21;16.30;99.90
19646;DHT22;9971;52.446;13.452;2022-12-07T21:59:24;16.30;99.90
19646;DHT22;9971;52.446;13.452;2022-12-07T22:04:26;16.30;99.90
19646;DHT22;9971;52.446;13.452;2022-12-07T22:09:29;16.30;99.90
19646;DHT22;9971;52.446;13.452;2022-12-07T22:14:31;16.30;99.90
19646;DHT22;9971;52.446;13.452;2022-12-07T22:19:39;16.30;99.90
19646;DHT22;9971;52.446;13.452;2022-12-07T22:24:42;16.40;99.90
19646;DHT22;9971;52.446;13.452;2022-12-07T22:29:44;16.40;99.90
19646;DHT22;9971;52.446;13.452;2022-12-07T22:34:47;16.50;99.90
19646;DHT22;9971;52.446;13.452;2022-12-07T22:39:49;16.50;99.90
19646;DHT22;9971;52.446;13.452;2022-12-07T22:44:52;16.60;99.90
19646;DHT22;9971;52.446;13.452;2022-12-07T22:49:54;16.60;99.90
19646;DHT22;9971;52.446;13.452;2022-12-07T22:54:57;16.60;99.90
19646;DHT22;9971;52.446;13.452;2022-12-07T22:59:59;16.60;99.90
19646;DHT22;9971;52.446;13.452;2022-12-07T23:05:02;16.70;99.90
19646;DHT22;9971;52.446;13.452;2022-12-07T23:10:04;16.70;99.90
19646;DHT22;9971;52.446;13.452;2022-12-07T23:15:07;16.70;99.90
19646;DHT22;9971;52.446;13.452;2022-12-07T23:20:10;16.70;99.90
19646;DHT22;9971;52.446;13.452;2022-12-07T23:25:13;16.70;99.90
19646;DHT22;9971;52.446;13.452;2022-12-07T23:30:15;16.70;99.90
19646;DHT22;9971;52.446;13.452;2022-12-07T23:35:18;16.70;99.90
19646;DHT22;9971;52.446;13.452;2022-12-07T23:40:20;16.70;99.90
19646;DHT22;9971;52.446;13.452;2022-12-07T23:45:23;16.70;99.90
19646;DHT22;9971;52.446;13.452;2022-12-07T23:50:25;16.70;99.90
19646;DHT22;9971;52.446;13.452;2022-12-07T23:55:28;16.70;99.90
